Capt. T Le — WDC9568 — position and weather

sailwx.info

Track history (hours):
 
Tides and Currents Weather Stations Pressure Air Temp Water Temp Dewpoint Dewpoint Depression Visibility Wind Speed Wind Dir Waves Ship Positions

Capt. T Le

Owner: SO CAL SHIP SERVICES, INC, TERMINAL ISLAND, CA. More information available from US FCC via Universal Licensing System and Coast Guard Vessel Documentation Center.

Last reported at 2018-Feb-22 06:30 UTC. Time now 2018-Feb-22 06:54 UTC.
Position N 34°09' W 119°12'.

Length 38 m; draft 2 m.

Type: Ship (hazmat cat B). MMSI: 367104030.

Date/timePositionNaut miles runAvg speedWind from/ knotsBaromVisibWave heightAir tempDewpointWater temp
2018-Feb-22 06:30N 34°09' W 119°12'0 0.0
2018-Feb-22 05:59N 34°09' W 119°12'0 0.0
2018-Feb-22 05:27N 34°09' W 119°12'0 0.0
2018-Feb-22 05:00N 34°09' W 119°12'0 0.0
2018-Feb-22 04:30N 34°09' W 119°12'0 0.0
2018-Feb-22 03:59N 34°09' W 119°12'2 3.5
2018-Feb-22 03:30N 34°08' W 119°14'917.3
2018-Feb-22 03:00N 34°11' W 119°24'4 7.0
2018-Feb-22 02:29N 34°10' W 119°20'612.9
2018-Feb-22 02:00N 34°09' W 119°13'1 1.3
2018-Feb-22 01:29N 34°09' W 119°12'4 8.7
2018-Feb-22 01:00N 34°07' W 119°17'4 8.1
2018-Feb-22 00:30N 34°09' W 119°12'5 9.4
2018-Feb-22 00:00N 34°07' W 119°17'714.1
2018-Feb-21 23:30N 34°11' W 119°25'815.9
2018-Feb-21 23:00N 34°09' W 119°16'3 5.9
2018-Feb-21 22:30N 34°09' W 119°12'4 8.5
2018-Feb-21 22:01N 34°07' W 119°17'0 0.0
2018-Feb-21 21:31N 34°07' W 119°17'0 0.1
2018-Feb-21 21:00N 34°07' W 119°17'612.7
2018-Feb-21 20:30N 34°10' W 119°23'6 9.2
2018-Feb-21 19:51N 34°09' W 119°16'3 9.5
2018-Feb-21 19:30N 34°09' W 119°12'0 0.0
2018-Feb-21 19:00N 34°09' W 119°12'0 0.0
2018-Feb-21 18:30N 34°09' W 119°12'0 0.0
2018-Feb-21 17:58N 34°09' W 119°12'0 0.0
2018-Feb-21 17:30N 34°09' W 119°12'0 0.8
2018-Feb-21 17:00N 34°09' W 119°13'815.6
2018-Feb-21 16:29N 34°10' W 119°22'3 5.1
2018-Feb-21 16:00N 34°11' W 119°25'612.3
2018-Feb-21 15:30N 34°09' W 119°18'510.0
2018-Feb-21 15:00N 34°09' W 119°12'0 0.0
2018-Feb-21 14:30N 34°09' W 119°12'0 0.0
2018-Feb-21 14:00N 34°09' W 119°12'0 0.0
2018-Feb-21 13:30N 34°09' W 119°12'2 4.9
2018-Feb-21 13:00N 34°08' W 119°15'2 4.6
2018-Feb-21 12:28N 34°09' W 119°12'0 0.0
2018-Feb-21 11:59N 34°09' W 119°12'0 0.0
2018-Feb-21 11:29N 34°09' W 119°12'0 0.0
2018-Feb-21 11:00N 34°09' W 119°12'0 0.0
2018-Feb-21 10:28N 34°09' W 119°12'0 0.0
2018-Feb-21 10:00N 34°09' W 119°12'0 0.0
2018-Feb-21 09:31N 34°09' W 119°12'0 0.0
2018-Feb-21 09:00N 34°09' W 119°12'0 0.0
2018-Feb-21 08:30N 34°09' W 119°12'0 0.0
2018-Feb-21 08:00N 34°09' W 119°12'0 0.0
2018-Feb-21 07:30N 34°09' W 119°12'0 0.0
2018-Feb-21 07:00N 34°09' W 119°12'0 0.0
2018-Feb-21 06:30N 34°09' W 119°12'0 0.0
2018-Feb-21 06:00N 34°09' W 119°12'0 0.0
2018-Feb-21 05:29N 34°09' W 119°12'0 0.0
2018-Feb-21 04:59N 34°09' W 119°12'0 0.0
2018-Feb-21 04:29N 34°09' W 119°12'0 0.0
2018-Feb-21 04:00N 34°09' W 119°12'4 7.4
2018-Feb-21 03:30N 34°09' W 119°17'714.9
2018-Feb-21 03:00N 34°11' W 119°25'5 9.9
2018-Feb-21 02:28N 34°10' W 119°19'511.2
2018-Feb-21 01:59N 34°09' W 119°12'0 0.5
2018-Feb-21 01:30N 34°09' W 119°12'0 0.0
2018-Feb-21 00:57N 34°09' W 119°12'3 6.1
2018-Feb-21 00:30N 34°08' W 119°15'1 1.8
2018-Feb-21 00:00N 34°07' W 119°16'815.6
2018-Feb-20 23:30N 34°11' W 119°24'1 1.5
2018-Feb-20 23:00N 34°11' W 119°25'0 0.0
2018-Feb-20 22:30N 34°11' W 119°25'0 0.0
2018-Feb-20 22:00N 34°11' W 119°25'0 0.0
2018-Feb-20 21:30N 34°11' W 119°25'0 0.0
2018-Feb-20 21:00N 34°11' W 119°25'0 0.0
2018-Feb-20 20:28N 34°11' W 119°25'511.1
2018-Feb-20 20:00N 34°15' W 119°28'814.8
2018-Feb-20 19:28N 34°23' W 119°31'0 0.3
2018-Feb-20 18:59N 34°23' W 119°30'611.2
2018-Feb-20 18:27N 34°17' W 119°29'716.1
2018-Feb-20 18:00N 34°12' W 119°23'714.6
2018-Feb-20 17:30N 34°07' W 119°17'0 0.5
2018-Feb-20 17:00N 34°07' W 119°17'4 6.4
2018-Feb-20 16:25N 34°09' W 119°21'410.5
2018-Feb-20 16:00N 34°11' W 119°25'1 2.2
2018-Feb-20 15:30N 34°10' W 119°24'814.4
2018-Feb-20 14:57N 34°08' W 119°15'3 5.9
2018-Feb-20 14:30N 34°09' W 119°12'0 0.0
2018-Feb-20 14:00N 34°09' W 119°12'2 5.0
2018-Feb-20 13:30N 34°08' W 119°15'1 2.1
2018-Feb-20 13:00N 34°08' W 119°14'1 2.7
2018-Feb-20 12:29N 34°09' W 119°12'0 0.0
2018-Feb-20 12:00N 34°09' W 119°12'0 0.0
2018-Feb-20 11:30N 34°09' W 119°12'0 0.0
2018-Feb-20 10:56N 34°09' W 119°12'0 0.0
2018-Feb-20 10:30N 34°09' W 119°12'0 0.0
2018-Feb-20 10:00N 34°09' W 119°12'0 0.0
2018-Feb-20 09:30N 34°09' W 119°12'0 0.0
2018-Feb-20 09:00N 34°09' W 119°12'0 0.0
2018-Feb-20 08:30N 34°09' W 119°12'0 0.0
2018-Feb-20 08:00N 34°09' W 119°12'0 0.0
2018-Feb-20 07:29N 34°09' W 119°12'0 0.0
2018-Feb-20 07:00N 34°09' W 119°12'0 0.0
2018-Feb-20 06:30N 34°09' W 119°12'0 0.0
2018-Feb-20 05:50N 34°09' W 119°12'0 0.0
2018-Feb-20 05:28N 34°09' W 119°12'0 0.0
2018-Feb-20 05:00N 34°09' W 119°12'0 0.0
2018-Feb-20 04:29N 34°09' W 119°12'0 0.4
2018-Feb-20 04:00N 34°09' W 119°12'814.4
2018-Feb-20 03:27N 34°10' W 119°22'0 0.5
2018-Feb-20 02:50N 34°10' W 119°22'3 7.7
2018-Feb-20 02:29N 34°09' W 119°19'5 9.5
2018-Feb-20 01:58N 34°09' W 119°13'1 1.4
2018-Feb-20 01:30N 34°09' W 119°12'0 0.0
2018-Feb-20 01:00N 34°09' W 119°12'0 0.0
2018-Feb-20 00:30N 34°09' W 119°12'0 0.0
2018-Feb-20 00:00N 34°09' W 119°12'0 0.0
2018-Feb-19 23:30N 34°09' W 119°12'0 0.0
2018-Feb-19 23:01N 34°09' W 119°12'0 0.2
2018-Feb-19 22:30N 34°09' W 119°12'2 3.2
2018-Feb-19 22:00N 34°08' W 119°14'814.0
2018-Feb-19 21:28N 34°10' W 119°23'2 4.7
2018-Feb-19 21:00N 34°11' W 119°25'3 5.1
2018-Feb-19 20:29N 34°10' W 119°22'4 9.0
2018-Feb-19 20:00N 34°08' W 119°18'3 7.0
2018-Feb-19 19:30N 34°08' W 119°14'1 2.7
2018-Feb-19 19:00N 34°09' W 119°12'0 0.0
2018-Feb-19 18:30N 34°09' W 119°12'0 0.0
2018-Feb-19 18:00N 34°09' W 119°12'0 0.0
2018-Feb-19 17:30N 34°09' W 119°12'0 0.4
2018-Feb-19 16:58N 34°09' W 119°12'0 0.2
2018-Feb-19 16:30N 34°09' W 119°12'816.0
2018-Feb-19 16:00N 34°10' W 119°22'1 2.0
2018-Feb-19 15:29N 34°09' W 119°21'510.9
2018-Feb-19 15:00N 34°08' W 119°15'3 5.6
2018-Feb-19 14:29N 34°09' W 119°12'0 0.0
2018-Feb-19 13:56N 34°09' W 119°12'0 0.0
2018-Feb-19 13:24N 34°09' W 119°12'0 0.0
2018-Feb-19 12:59N 34°09' W 119°12'0 0.0
2018-Feb-19 12:25N 34°09' W 119°12'0 0.0
2018-Feb-19 12:00N 34°09' W 119°12'0 0.0
2018-Feb-19 11:26N 34°09' W 119°12'0 0.0
2018-Feb-19 10:59N 34°09' W 119°12'0 0.0
2018-Feb-19 10:30N 34°09' W 119°12'0 0.0
2018-Feb-19 09:56N 34°09' W 119°12'0 0.0
2018-Feb-19 09:30N 34°09' W 119°12'0 0.0
2018-Feb-19 08:58N 34°09' W 119°12'0 0.0
2018-Feb-19 08:25N 34°09' W 119°12'0 0.0
2018-Feb-19 07:58N 34°09' W 119°12'0 0.0
2018-Feb-19 07:28N 34°09' W 119°12'0 0.0
2018-Feb-19 06:58N 34°09' W 119°12'0 0.0
2018-Feb-19 06:30N 34°09' W 119°12'0 0.0
2018-Feb-19 05:59N 34°09' W 119°12'0 0.0
2018-Feb-19 05:20N 34°09' W 119°12'0 0.0
2018-Feb-19 04:58N 34°09' W 119°12'0 0.0
2018-Feb-19 04:30N 34°09' W 119°12'714.4
2018-Feb-19 04:00N 34°10' W 119°21'2 2.9
2018-Feb-19 03:26N 34°10' W 119°23'4 8.2
2018-Feb-19 03:00N 34°08' W 119°19'4 7.2
2018-Feb-19 02:30N 34°08' W 119°15'2 4.6
2018-Feb-19 01:59N 34°09' W 119°12'0 0.0
2018-Feb-19 01:30N 34°09' W 119°12'0 0.0
2018-Feb-19 01:00N 34°09' W 119°12'0 0.0
2018-Feb-19 00:30N 34°09' W 119°12'2 3.8
2018-Feb-19 00:00N 34°08' W 119°14'917.0
2018-Feb-18 23:31N 34°11' W 119°24'5 9.0
2018-Feb-18 23:00N 34°08' W 119°19'612.1
2018-Feb-18 22:30N 34°09' W 119°12'0 0.4
2018-Feb-18 22:00N 34°09' W 119°12'0 0.0
2018-Feb-18 21:30N 34°09' W 119°12'0 0.0
2018-Feb-18 21:00N 34°09' W 119°12'0 0.0
2018-Feb-18 20:30N 34°09' W 119°12'0 0.0
2018-Feb-18 20:00N 34°09' W 119°12'0 0.0
2018-Feb-18 19:27N 34°09' W 119°12'0 0.0
2018-Feb-18 19:00N 34°09' W 119°12'0 0.0
2018-Feb-18 18:30N 34°09' W 119°12'0 0.0
2018-Feb-18 17:57N 34°09' W 119°12'0 0.0
2018-Feb-18 17:30N 34°09' W 119°12'0 0.0
2018-Feb-18 17:00N 34°09' W 119°12'3 6.7
2018-Feb-18 16:30N 34°09' W 119°16'5 9.8
2018-Feb-18 16:00N 34°11' W 119°21'2 3.7
2018-Feb-18 15:29N 34°10' W 119°20'713.5
2018-Feb-18 15:00N 34°09' W 119°12'0 0.0
2018-Feb-18 14:30N 34°09' W 119°12'0 0.0
2018-Feb-18 14:00N 34°09' W 119°12'0 0.0
2018-Feb-18 13:30N 34°09' W 119°12'0 0.0
2018-Feb-18 13:00N 34°09' W 119°12'0 0.0
2018-Feb-18 12:30N 34°09' W 119°12'0 0.0
2018-Feb-18 12:00N 34°09' W 119°12'0 0.0
2018-Feb-18 11:30N 34°09' W 119°12'0 0.0
2018-Feb-18 10:59N 34°09' W 119°12'0 0.0
2018-Feb-18 10:27N 34°09' W 119°12'0 0.0
2018-Feb-18 09:59N 34°09' W 119°12'0 0.0
2018-Feb-18 09:27N 34°09' W 119°12'0 0.0
2018-Feb-18 09:00N 34°09' W 119°12'0 0.0
2018-Feb-18 08:30N 34°09' W 119°12'0 0.0
2018-Feb-18 07:59N 34°09' W 119°12'0 0.0
2018-Feb-18 07:30N 34°09' W 119°12'0 0.0
2018-Feb-18 07:00N 34°09' W 119°12'0 0.0
2018-Feb-18 06:30N 34°09' W 119°12'0 0.0
2018-Feb-18 05:57N 34°09' W 119°12'0 0.0
2018-Feb-18 05:30N 34°09' W 119°12'0 0.0
2018-Feb-18 05:00N 34°09' W 119°12'0 0.0
2018-Feb-18 04:30N 34°09' W 119°12'0 0.0
2018-Feb-18 04:00N 34°09' W 119°12'0 0.6
2018-Feb-18 03:30N 34°09' W 119°12'816.1
2018-Feb-18 03:00N 34°10' W 119°22'1 1.4
2018-Feb-18 02:30N 34°10' W 119°21'713.9
2018-Feb-18 01:58N 34°09' W 119°12'0 0.6
2018-Feb-18 01:30N 34°09' W 119°12'0 0.0
2018-Feb-18 00:58N 34°09' W 119°12'0 0.0
2018-Feb-18 00:26N 34°09' W 119°12'2 4.7
2018-Feb-18 00:01N 34°09' W 119°15'916.9
2018-Feb-17 23:30N 34°11' W 119°24'712.2
2018-Feb-17 22:58N 34°09' W 119°17'4 8.3
2018-Feb-17 22:30N 34°09' W 119°12'0 0.0
2018-Feb-17 22:00N 34°09' W 119°12'0 0.0
2018-Feb-17 21:28N 34°09' W 119°12'0 0.0
2018-Feb-17 20:56N 34°09' W 119°12'0 0.0
2018-Feb-17 20:29N 34°09' W 119°12'0 0.0
2018-Feb-17 19:57N 34°09' W 119°12'0 0.0
2018-Feb-17 19:28N 34°09' W 119°12'0 0.0
2018-Feb-17 18:58N 34°09' W 119°12'0 0.0
2018-Feb-17 18:25N 34°09' W 119°12'0 0.0
2018-Feb-17 18:00N 34°09' W 119°12'0 0.0
2018-Feb-17 17:29N 34°09' W 119°12'0 0.0
2018-Feb-17 17:01N 34°09' W 119°12'4 8.2
2018-Feb-17 16:30N 34°09' W 119°17'713.8
2018-Feb-17 16:00N 34°11' W 119°25'0 0.7
2018-Feb-17 15:30N 34°11' W 119°25'816.6
2018-Feb-17 15:00N 34°09' W 119°15'2 4.6
2018-Feb-17 14:27N 34°09' W 119°12'0 0.0
2018-Feb-17 14:00N 34°09' W 119°12'0 0.0
2018-Feb-17 13:30N 34°09' W 119°12'0 0.0
2018-Feb-17 12:55N 34°09' W 119°12'0 0.0
2018-Feb-17 12:25N 34°09' W 119°12'0 0.0
2018-Feb-17 12:00N 34°09' W 119°12'0 0.0
2018-Feb-17 11:27N 34°09' W 119°12'0 0.0
2018-Feb-17 10:54N 34°09' W 119°12'0 0.0
2018-Feb-17 10:30N 34°09' W 119°12'0 0.0
2018-Feb-17 10:00N 34°09' W 119°12'0 0.0
2018-Feb-17 09:30N 34°09' W 119°12'0 0.0
2018-Feb-17 09:00N 34°09' W 119°12'0 0.0
2018-Feb-17 08:30N 34°09' W 119°12'0 0.0
2018-Feb-17 07:57N 34°09' W 119°12'0 0.0
2018-Feb-17 07:28N 34°09' W 119°12'0 0.0
2018-Feb-17 06:59N 34°09' W 119°12'0 0.0
2018-Feb-17 06:28N 34°09' W 119°12'0 0.0
2018-Feb-17 05:56N 34°09' W 119°12'0 0.0
2018-Feb-17 05:22N 34°09' W 119°12'0 0.0
2018-Feb-17 04:59N 34°09' W 119°12'0 0.0
2018-Feb-17 04:30N 34°09' W 119°12'3 6.2
2018-Feb-17 03:59N 34°09' W 119°16'715.7
2018-Feb-17 03:31N 34°11' W 119°25'0 0.7
2018-Feb-17 03:00N 34°11' W 119°25'5 9.7
2018-Feb-17 02:30N 34°10' W 119°19'611.7
2018-Feb-17 01:59N 34°09' W 119°12'0 0.0
2018-Feb-17 01:30N 34°09' W 119°12'1 2.6
2018-Feb-17 00:58N 34°09' W 119°14'714.3
2018-Feb-17 00:29N 34°10' W 119°22'1 2.5
2018-Feb-16 23:55N 34°09' W 119°21'511.7
2018-Feb-16 23:30N 34°07' W 119°16'3 6.4
2018-Feb-16 23:00N 34°09' W 119°12'0 0.0
2018-Feb-16 22:30N 34°09' W 119°12'0 0.0
2018-Feb-16 21:59N 34°09' W 119°12'0 0.0
2018-Feb-16 21:28N 34°09' W 119°12'4 6.9
2018-Feb-16 20:58N 34°09' W 119°16'714.8
2018-Feb-16 20:29N 34°11' W 119°25'1 1.4
2018-Feb-16 20:00N 34°11' W 119°25'0 0.2
2018-Feb-16 19:29N 34°11' W 119°25'0 0.6
2018-Feb-16 18:59N 34°11' W 119°26'0 0.4
2018-Feb-16 18:30N 34°11' W 119°26'0 0.6
2018-Feb-16 17:57N 34°11' W 119°25'0 0.2
2018-Feb-16 17:30N 34°11' W 119°25'0 0.2
2018-Feb-16 17:00N 34°11' W 119°25'0 0.0
2018-Feb-16 16:30N 34°11' W 119°25'0 0.1
2018-Feb-16 16:00N 34°11' W 119°25'610.0
2018-Feb-16 15:27N 34°09' W 119°19'512.6
2018-Feb-16 15:00N 34°09' W 119°12'0 0.0
2018-Feb-16 14:30N 34°09' W 119°12'1 1.6
2018-Feb-16 13:59N 34°08' W 119°13'2 4.0
2018-Feb-16 13:30N 34°08' W 119°15'2 4.8
2018-Feb-16 13:00N 34°09' W 119°13'0 0.8
2018-Feb-16 12:30N 34°09' W 119°12'0 0.0
2018-Feb-16 12:00N 34°09' W 119°12'0 0.0
2018-Feb-16 11:30N 34°09' W 119°12'0 0.0
2018-Feb-16 10:52N 34°09' W 119°12'0 0.0
2018-Feb-16 10:28N 34°09' W 119°12'0 0.0
2018-Feb-16 10:00N 34°09' W 119°12'0 0.0
2018-Feb-16 09:30N 34°09' W 119°12'0 0.0
2018-Feb-16 09:00N 34°09' W 119°12'0 0.0
2018-Feb-16 08:30N 34°09' W 119°12'0 0.0
2018-Feb-16 08:00N 34°09' W 119°12'0 0.0
2018-Feb-16 07:30N 34°09' W 119°12'0 0.0
2018-Feb-16 07:00N 34°09' W 119°12'0 0.0
2018-Feb-16 06:28N 34°09' W 119°12'0 0.0
2018-Feb-16 06:00N 34°09' W 119°12'0 0.0
2018-Feb-16 05:30N 34°09' W 119°12'0 0.0
2018-Feb-16 04:57N 34°09' W 119°12'3 6.9
2018-Feb-16 04:28N 34°09' W 119°16'715.8
2018-Feb-16 04:01N 34°11' W 119°25'712.5
2018-Feb-16 03:27N 34°09' W 119°17'4 8.1
2018-Feb-16 03:00N 34°09' W 119°12'0 0.0
2018-Feb-16 02:29N 34°09' W 119°12'0 0.0
2018-Feb-16 01:56N 34°09' W 119°12'0 0.0
2018-Feb-16 01:29N 34°09' W 119°12'0 0.0
2018-Feb-16 00:59N 34°09' W 119°12'3 5.5
2018-Feb-16 00:30N 34°08' W 119°15'1 2.1
2018-Feb-16 00:00N 34°07' W 119°16'815.6
2018-Feb-15 23:29N 34°11' W 119°25'0 0.9
2018-Feb-15 22:59N 34°11' W 119°25'511.3
2018-Feb-15 22:30N 34°08' W 119°19'3 5.2
2018-Feb-15 22:00N 34°07' W 119°17'2 4.6
2018-Feb-15 21:28N 34°08' W 119°14'613.2
2018-Feb-15 20:59N 34°09' W 119°22'3 6.3
2018-Feb-15 20:28N 34°11' W 119°25'3 7.4
2018-Feb-15 20:00N 34°14' W 119°27'715.0
2018-Feb-15 19:30N 34°20' W 119°32'3 5.1
2018-Feb-15 18:55N 34°23' W 119°30'410.5
2018-Feb-15 18:29N 34°19' W 119°31'816.5
2018-Feb-15 17:59N 34°11' W 119°26'712.4
2018-Feb-15 17:27N 34°09' W 119°18'511.0
2018-Feb-15 17:00N 34°09' W 119°12'0 0.8
2018-Feb-15 16:30N 34°09' W 119°13'815.2
2018-Feb-15 16:00N 34°10' W 119°22'3 5.8
2018-Feb-15 15:30N 34°11' W 119°25'915.7
2018-Feb-15 14:56N 34°09' W 119°15'2 4.9
2018-Feb-15 14:30N 34°09' W 119°12'0 0.0
2018-Feb-15 13:59N 34°09' W 119°12'0 0.0
2018-Feb-15 13:30N 34°09' W 119°12'2 2.8
2018-Feb-15 12:58N 34°08' W 119°14'2 3.3
2018-Feb-15 12:30N 34°09' W 119°12'0 0.0
2018-Feb-15 11:58N 34°09' W 119°12'0 0.0
2018-Feb-15 11:29N 34°09' W 119°12'0 0.0
2018-Feb-15 10:57N 34°09' W 119°12'0 0.0
2018-Feb-15 10:30N 34°09' W 119°12'0 0.0
2018-Feb-15 10:00N 34°09' W 119°12'0 0.0
2018-Feb-15 09:30N 34°09' W 119°12'0 0.0
2018-Feb-15 09:00N 34°09' W 119°12'0 0.0
2018-Feb-15 08:30N 34°09' W 119°12'0 0.0
2018-Feb-15 07:59N 34°09' W 119°12'0 0.0
2018-Feb-15 07:30N 34°09' W 119°12'0 0.0
2018-Feb-15 07:00N 34°09' W 119°12'0 0.0
2018-Feb-15 06:30N 34°09' W 119°12'0 0.0
2018-Feb-15 06:00N 34°09' W 119°12'0 0.0
2018-Feb-15 05:30N 34°09' W 119°12'0 0.0
2018-Feb-15 05:00N 34°09' W 119°12'0 0.0
2018-Feb-15 04:30N 34°09' W 119°12'0 0.0
2018-Feb-15 04:00N 34°09' W 119°12'611.3
2018-Feb-15 03:30N 34°09' W 119°19'510.6
2018-Feb-15 03:00N 34°11' W 119°25'4 7.5
2018-Feb-15 02:25N 34°10' W 119°20'614.9
2018-Feb-15 02:00N 34°09' W 119°13'0 0.8
2018-Feb-15 01:30N 34°09' W 119°12'0 0.0
2018-Feb-15 01:00N 34°09' W 119°12'4 8.1
2018-Feb-15 00:30N 34°07' W 119°16'816.1
2018-Feb-15 00:00N 34°11' W 119°25'0 0.3
2018-Feb-14 23:30N 34°11' W 119°25'0 0.0
2018-Feb-14 22:59N 34°11' W 119°25'0 0.0
2018-Feb-14 22:30N 34°11' W 119°25'0 0.0
2018-Feb-14 21:59N 34°11' W 119°25'0 0.0
2018-Feb-14 21:28N 34°11' W 119°25'0 0.0
2018-Feb-14 21:01N 34°11' W 119°25'0 0.3
2018-Feb-14 20:30N 34°11' W 119°25'714.1
2018-Feb-14 20:00N 34°09' W 119°17'4 7.8
2018-Feb-14 19:29N 34°09' W 119°12'0 0.0
2018-Feb-14 19:00N 34°09' W 119°12'2 3.8
2018-Feb-14 18:30N 34°08' W 119°14'816.0
2018-Feb-14 18:00N 34°10' W 119°24'1 2.7
2018-Feb-14 17:28N 34°11' W 119°25'0 0.0
2018-Feb-14 17:00N 34°11' W 119°25'0 0.0
2018-Feb-14 16:29N 34°11' W 119°25'0 0.0
2018-Feb-14 16:00N 34°11' W 119°25'3 6.6
2018-Feb-14 15:29N 34°09' W 119°22'713.8
2018-Feb-14 14:59N 34°08' W 119°13'1 2.1
2018-Feb-14 14:28N 34°09' W 119°12'0 0.0
2018-Feb-14 13:59N 34°09' W 119°12'0 0.0
2018-Feb-14 13:30N 34°09' W 119°12'0 0.0
2018-Feb-14 13:00N 34°09' W 119°12'0 0.0
2018-Feb-14 12:30N 34°09' W 119°12'0 0.0
2018-Feb-14 12:00N 34°09' W 119°12'0 0.0
2018-Feb-14 11:28N 34°09' W 119°12'0 0.0
2018-Feb-14 11:00N 34°09' W 119°12'0 0.0
2018-Feb-14 10:30N 34°09' W 119°12'0 0.0
2018-Feb-14 10:00N 34°09' W 119°12'0 0.0
2018-Feb-14 09:30N 34°09' W 119°12'0 0.0
2018-Feb-14 08:59N 34°09' W 119°12'0 0.0
2018-Feb-14 08:30N 34°09' W 119°12'0 0.0
2018-Feb-14 08:00N 34°09' W 119°12'0 0.0
2018-Feb-14 07:30N 34°09' W 119°12'0 0.0
2018-Feb-14 07:00N 34°09' W 119°12'0 0.0
2018-Feb-14 06:30N 34°09' W 119°12'0 0.0
2018-Feb-14 06:00N 34°09' W 119°12'0 0.0
2018-Feb-14 05:30N 34°09' W 119°12'0 0.0
2018-Feb-14 05:00N 34°09' W 119°12'0 0.0
2018-Feb-14 04:30N 34°09' W 119°12'0 0.0
2018-Feb-14 04:00N 34°09' W 119°12'1 2.2
2018-Feb-14 03:29N 34°08' W 119°13'816.2
2018-Feb-14 03:00N 34°10' W 119°23'3 6.1
2018-Feb-14 02:30N 34°10' W 119°19'611.3
2018-Feb-14 02:00N 34°09' W 119°12'0 0.0
2018-Feb-14 01:30N 34°09' W 119°12'0 0.0
2018-Feb-14 01:00N 34°09' W 119°12'0 0.0
2018-Feb-14 00:30N 34°09' W 119°12'612.2
2018-Feb-14 00:00N 34°10' W 119°20'5 9.5
2018-Feb-13 23:29N 34°11' W 119°25'0 0.0
2018-Feb-13 23:00N 34°11' W 119°25'0 0.3
2018-Feb-13 22:30N 34°11' W 119°25'0 0.0
2018-Feb-13 22:00N 34°11' W 119°25'611.1
2018-Feb-13 21:28N 34°16' W 119°29'612.2
2018-Feb-13 21:01N 34°21' W 119°31'13 3.8
2018-Feb-13 17:32N 34°10' W 119°22'214.8
2018-Feb-13 17:26N 34°11' W 119°24'1 2.0
2018-Feb-13 17:00N 34°11' W 119°25'0 0.0
2018-Feb-13 16:28N 34°11' W 119°25'0 0.2
2018-Feb-13 15:59N 34°11' W 119°25'610.7
2018-Feb-13 15:26N 34°10' W 119°18'512.3
2018-Feb-13 15:01N 34°09' W 119°12'0 0.0
2018-Feb-13 14:30N 34°09' W 119°12'0 0.0
2018-Feb-13 13:58N 34°09' W 119°12'0 0.3
2018-Feb-13 13:30N 34°09' W 119°12'1 2.7
2018-Feb-13 13:00N 34°08' W 119°14'1 2.9
2018-Feb-13 12:30N 34°09' W 119°12'0 0.0
2018-Feb-13 12:00N 34°09' W 119°12'0 0.0
2018-Feb-13 11:30N 34°09' W 119°12'0 0.0
2018-Feb-13 10:59N 34°09' W 119°12'0 0.0
2018-Feb-13 10:30N 34°09' W 119°12'0 0.0
2018-Feb-13 10:00N 34°09' W 119°12'0 0.0
2018-Feb-13 09:30N 34°09' W 119°12'0 0.0
2018-Feb-13 09:00N 34°09' W 119°12'0 0.0
2018-Feb-13 08:30N 34°09' W 119°12'0 0.0
2018-Feb-13 08:00N 34°09' W 119°12'0 0.0
2018-Feb-13 07:30N 34°09' W 119°12'0 0.0
2018-Feb-13 07:00N 34°09' W 119°12'0 0.0
2018-Feb-13 06:30N 34°09' W 119°12'0 0.0
2018-Feb-13 06:00N 34°09' W 119°12'0 0.0
2018-Feb-13 05:30N 34°09' W 119°12'0 0.0
2018-Feb-13 05:00N 34°09' W 119°12'0 0.0
2018-Feb-13 04:29N 34°09' W 119°12'0 0.0
2018-Feb-13 04:00N 34°09' W 119°12'0 0.0
2018-Feb-13 03:30N 34°09' W 119°12'0 0.0
2018-Feb-13 02:59N 34°09' W 119°12'0 0.0
2018-Feb-13 02:30N 34°09' W 119°12'0 0.0
2018-Feb-13 02:00N 34°09' W 119°12'0 0.0
2018-Feb-13 01:28N 34°09' W 119°12'0 0.0
2018-Feb-13 01:00N 34°09' W 119°12'0 0.1
2018-Feb-13 00:30N 34°09' W 119°12'510.6
2018-Feb-13 00:00N 34°08' W 119°18'612.5
2018-Feb-12 23:30N 34°11' W 119°25'0 0.3
2018-Feb-12 22:59N 34°11' W 119°25'0 0.0
2018-Feb-12 22:29N 34°11' W 119°25'0 0.0
2018-Feb-12 22:00N 34°11' W 119°25'0 0.0
2018-Feb-12 21:31N 34°11' W 119°25'2 3.6
2018-Feb-12 20:53N 34°10' W 119°23'614.4
2018-Feb-12 20:30N 34°09' W 119°16'3 6.3
2018-Feb-12 20:00N 34°09' W 119°12'0 0.0
2018-Feb-12 19:30N 34°09' W 119°12'0 0.0
2018-Feb-12 19:00N 34°09' W 119°12'0 0.0
2018-Feb-12 18:30N 34°09' W 119°12'0 0.0
2018-Feb-12 18:00N 34°09' W 119°12'0 0.0
2018-Feb-12 17:30N 34°09' W 119°12'0 0.4
2018-Feb-12 16:59N 34°09' W 119°12'2 4.2
2018-Feb-12 16:30N 34°08' W 119°14'714.2
2018-Feb-12 16:00N 34°10' W 119°23'0 0.6
2018-Feb-12 15:30N 34°10' W 119°23'813.9
2018-Feb-12 14:56N 34°08' W 119°14'2 3.6
2018-Feb-12 14:30N 34°09' W 119°12'0 0.0
2018-Feb-12 14:00N 34°09' W 119°12'0 0.0
2018-Feb-12 13:30N 34°09' W 119°12'0 0.0
2018-Feb-12 13:00N 34°09' W 119°12'0 0.0
2018-Feb-12 12:29N 34°09' W 119°12'0 0.0
2018-Feb-12 12:00N 34°09' W 119°12'0 0.0
2018-Feb-12 11:30N 34°09' W 119°12'0 0.0
2018-Feb-12 11:00N 34°09' W 119°12'0 0.0
2018-Feb-12 10:30N 34°09' W 119°12'0 0.0
2018-Feb-12 10:00N 34°09' W 119°12'0 0.0
2018-Feb-12 09:30N 34°09' W 119°12'0 0.0
2018-Feb-12 09:00N 34°09' W 119°12'0 0.0
2018-Feb-12 08:30N 34°09' W 119°12'0 0.0
2018-Feb-12 08:00N 34°09' W 119°12'0 0.0
2018-Feb-12 07:29N 34°09' W 119°12'0 0.0
2018-Feb-12 07:00N 34°09' W 119°12'  
Track history (hours):
 
Tides and Currents Weather Stations Pressure Air Temp Water Temp Dewpoint Dewpoint Depression Visibility Wind Speed Wind Dir Waves Ship Positions

Capt. T Le

Owner: SO CAL SHIP SERVICES, INC, TERMINAL ISLAND, CA. More information available from US FCC via Universal Licensing System and Coast Guard Vessel Documentation Center.

Last reported at 2018-Feb-22 06:30 UTC. Time now 2018-Feb-22 06:54 UTC.
Position N 34°09' W 119°12'.

Length 38 m; draft 2 m.

Type: Ship (hazmat cat B). MMSI: 367104030.

Date/timePositionNaut miles runAvg speedWind from/ knotsBaromVisibWave heightAir tempDewpointWater temp
2018-Feb-22 06:30N 34°09' W 119°12'0 0.0
2018-Feb-22 05:59N 34°09' W 119°12'0 0.0
2018-Feb-22 05:27N 34°09' W 119°12'0 0.0
2018-Feb-22 05:00N 34°09' W 119°12'0 0.0
2018-Feb-22 04:30N 34°09' W 119°12'0 0.0
2018-Feb-22 03:59N 34°09' W 119°12'2 3.5
2018-Feb-22 03:30N 34°08' W 119°14'917.3
2018-Feb-22 03:00N 34°11' W 119°24'4 7.0
2018-Feb-22 02:29N 34°10' W 119°20'612.9
2018-Feb-22 02:00N 34°09' W 119°13'1 1.3
2018-Feb-22 01:29N 34°09' W 119°12'4 8.7
2018-Feb-22 01:00N 34°07' W 119°17'4 8.1
2018-Feb-22 00:30N 34°09' W 119°12'5 9.4
2018-Feb-22 00:00N 34°07' W 119°17'714.1
2018-Feb-21 23:30N 34°11' W 119°25'815.9
2018-Feb-21 23:00N 34°09' W 119°16'3 5.9
2018-Feb-21 22:30N 34°09' W 119°12'4 8.5
2018-Feb-21 22:01N 34°07' W 119°17'0 0.0
2018-Feb-21 21:31N 34°07' W 119°17'0 0.1
2018-Feb-21 21:00N 34°07' W 119°17'612.7
2018-Feb-21 20:30N 34°10' W 119°23'6 9.2
2018-Feb-21 19:51N 34°09' W 119°16'3 9.5
2018-Feb-21 19:30N 34°09' W 119°12'0 0.0
2018-Feb-21 19:00N 34°09' W 119°12'0 0.0
2018-Feb-21 18:30N 34°09' W 119°12'0 0.0
2018-Feb-21 17:58N 34°09' W 119°12'0 0.0
2018-Feb-21 17:30N 34°09' W 119°12'0 0.8
2018-Feb-21 17:00N 34°09' W 119°13'815.6
2018-Feb-21 16:29N 34°10' W 119°22'3 5.1
2018-Feb-21 16:00N 34°11' W 119°25'612.3
2018-Feb-21 15:30N 34°09' W 119°18'510.0
2018-Feb-21 15:00N 34°09' W 119°12'0 0.0
2018-Feb-21 14:30N 34°09' W 119°12'0 0.0
2018-Feb-21 14:00N 34°09' W 119°12'0 0.0
2018-Feb-21 13:30N 34°09' W 119°12'2 4.9
2018-Feb-21 13:00N 34°08' W 119°15'2 4.6
2018-Feb-21 12:28N 34°09' W 119°12'0 0.0
2018-Feb-21 11:59N 34°09' W 119°12'0 0.0
2018-Feb-21 11:29N 34°09' W 119°12'0 0.0
2018-Feb-21 11:00N 34°09' W 119°12'0 0.0
2018-Feb-21 10:28N 34°09' W 119°12'0 0.0
2018-Feb-21 10:00N 34°09' W 119°12'0 0.0
2018-Feb-21 09:31N 34°09' W 119°12'0 0.0
2018-Feb-21 09:00N 34°09' W 119°12'0 0.0
2018-Feb-21 08:30N 34°09' W 119°12'0 0.0
2018-Feb-21 08:00N 34°09' W 119°12'0 0.0
2018-Feb-21 07:30N 34°09' W 119°12'0 0.0
2018-Feb-21 07:00N 34°09' W 119°12'0 0.0
2018-Feb-21 06:30N 34°09' W 119°12'0 0.0
2018-Feb-21 06:00N 34°09' W 119°12'0 0.0
2018-Feb-21 05:29N 34°09' W 119°12'0 0.0
2018-Feb-21 04:59N 34°09' W 119°12'0 0.0
2018-Feb-21 04:29N 34°09' W 119°12'0 0.0
2018-Feb-21 04:00N 34°09' W 119°12'4 7.4
2018-Feb-21 03:30N 34°09' W 119°17'714.9
2018-Feb-21 03:00N 34°11' W 119°25'5 9.9
2018-Feb-21 02:28N 34°10' W 119°19'511.2
2018-Feb-21 01:59N 34°09' W 119°12'0 0.5
2018-Feb-21 01:30N 34°09' W 119°12'0 0.0
2018-Feb-21 00:57N 34°09' W 119°12'3 6.1
2018-Feb-21 00:30N 34°08' W 119°15'1 1.8
2018-Feb-21 00:00N 34°07' W 119°16'815.6
2018-Feb-20 23:30N 34°11' W 119°24'1 1.5
2018-Feb-20 23:00N 34°11' W 119°25'0 0.0
2018-Feb-20 22:30N 34°11' W 119°25'0 0.0
2018-Feb-20 22:00N 34°11' W 119°25'0 0.0
2018-Feb-20 21:30N 34°11' W 119°25'0 0.0
2018-Feb-20 21:00N 34°11' W 119°25'0 0.0
2018-Feb-20 20:28N 34°11' W 119°25'511.1
2018-Feb-20 20:00N 34°15' W 119°28'814.8
2018-Feb-20 19:28N 34°23' W 119°31'0 0.3
2018-Feb-20 18:59N 34°23' W 119°30'611.2
2018-Feb-20 18:27N 34°17' W 119°29'716.1
2018-Feb-20 18:00N 34°12' W 119°23'714.6
2018-Feb-20 17:30N 34°07' W 119°17'0 0.5
2018-Feb-20 17:00N 34°07' W 119°17'4 6.4
2018-Feb-20 16:25N 34°09' W 119°21'410.5
2018-Feb-20 16:00N 34°11' W 119°25'1 2.2
2018-Feb-20 15:30N 34°10' W 119°24'814.4
2018-Feb-20 14:57N 34°08' W 119°15'3 5.9
2018-Feb-20 14:30N 34°09' W 119°12'0 0.0
2018-Feb-20 14:00N 34°09' W 119°12'2 5.0
2018-Feb-20 13:30N 34°08' W 119°15'1 2.1
2018-Feb-20 13:00N 34°08' W 119°14'1 2.7
2018-Feb-20 12:29N 34°09' W 119°12'0 0.0
2018-Feb-20 12:00N 34°09' W 119°12'0 0.0
2018-Feb-20 11:30N 34°09' W 119°12'0 0.0
2018-Feb-20 10:56N 34°09' W 119°12'0 0.0
2018-Feb-20 10:30N 34°09' W 119°12'0 0.0
2018-Feb-20 10:00N 34°09' W 119°12'0 0.0
2018-Feb-20 09:30N 34°09' W 119°12'0 0.0
2018-Feb-20 09:00N 34°09' W 119°12'0 0.0
2018-Feb-20 08:30N 34°09' W 119°12'0 0.0
2018-Feb-20 08:00N 34°09' W 119°12'0 0.0
2018-Feb-20 07:29N 34°09' W 119°12'0 0.0
2018-Feb-20 07:00N 34°09' W 119°12'0 0.0
2018-Feb-20 06:30N 34°09' W 119°12'0 0.0
2018-Feb-20 05:50N 34°09' W 119°12'0 0.0
2018-Feb-20 05:28N 34°09' W 119°12'0 0.0
2018-Feb-20 05:00N 34°09' W 119°12'0 0.0
2018-Feb-20 04:29N 34°09' W 119°12'0 0.4
2018-Feb-20 04:00N 34°09' W 119°12'814.4
2018-Feb-20 03:27N 34°10' W 119°22'0 0.5
2018-Feb-20 02:50N 34°10' W 119°22'3 7.7
2018-Feb-20 02:29N 34°09' W 119°19'5 9.5
2018-Feb-20 01:58N 34°09' W 119°13'1 1.4
2018-Feb-20 01:30N 34°09' W 119°12'0 0.0
2018-Feb-20 01:00N 34°09' W 119°12'0 0.0
2018-Feb-20 00:30N 34°09' W 119°12'0 0.0
2018-Feb-20 00:00N 34°09' W 119°12'0 0.0
2018-Feb-19 23:30N 34°09' W 119°12'0 0.0
2018-Feb-19 23:01N 34°09' W 119°12'0 0.2
2018-Feb-19 22:30N 34°09' W 119°12'2 3.2
2018-Feb-19 22:00N 34°08' W 119°14'814.0
2018-Feb-19 21:28N 34°10' W 119°23'2 4.7
2018-Feb-19 21:00N 34°11' W 119°25'3 5.1
2018-Feb-19 20:29N 34°10' W 119°22'4 9.0
2018-Feb-19 20:00N 34°08' W 119°18'3 7.0
2018-Feb-19 19:30N 34°08' W 119°14'1 2.7
2018-Feb-19 19:00N 34°09' W 119°12'0 0.0
2018-Feb-19 18:30N 34°09' W 119°12'0 0.0
2018-Feb-19 18:00N 34°09' W 119°12'0 0.0
2018-Feb-19 17:30N 34°09' W 119°12'0 0.4
2018-Feb-19 16:58N 34°09' W 119°12'0 0.2
2018-Feb-19 16:30N 34°09' W 119°12'816.0
2018-Feb-19 16:00N 34°10' W 119°22'1 2.0
2018-Feb-19 15:29N 34°09' W 119°21'510.9
2018-Feb-19 15:00N 34°08' W 119°15'3 5.6
2018-Feb-19 14:29N 34°09' W 119°12'0 0.0
2018-Feb-19 13:56N 34°09' W 119°12'0 0.0
2018-Feb-19 13:24N 34°09' W 119°12'0 0.0
2018-Feb-19 12:59N 34°09' W 119°12'0 0.0
2018-Feb-19 12:25N 34°09' W 119°12'0 0.0
2018-Feb-19 12:00N 34°09' W 119°12'0 0.0
2018-Feb-19 11:26N 34°09' W 119°12'0 0.0
2018-Feb-19 10:59N 34°09' W 119°12'0 0.0
2018-Feb-19 10:30N 34°09' W 119°12'0 0.0
2018-Feb-19 09:56N 34°09' W 119°12'0 0.0
2018-Feb-19 09:30N 34°09' W 119°12'0 0.0
2018-Feb-19 08:58N 34°09' W 119°12'0 0.0
2018-Feb-19 08:25N 34°09' W 119°12'0 0.0
2018-Feb-19 07:58N 34°09' W 119°12'0 0.0
2018-Feb-19 07:28N 34°09' W 119°12'0 0.0
2018-Feb-19 06:58N 34°09' W 119°12'0 0.0
2018-Feb-19 06:30N 34°09' W 119°12'0 0.0
2018-Feb-19 05:59N 34°09' W 119°12'0 0.0
2018-Feb-19 05:20N 34°09' W 119°12'0 0.0
2018-Feb-19 04:58N 34°09' W 119°12'0 0.0
2018-Feb-19 04:30N 34°09' W 119°12'714.4
2018-Feb-19 04:00N 34°10' W 119°21'2 2.9
2018-Feb-19 03:26N 34°10' W 119°23'4 8.2
2018-Feb-19 03:00N 34°08' W 119°19'4 7.2
2018-Feb-19 02:30N 34°08' W 119°15'2 4.6
2018-Feb-19 01:59N 34°09' W 119°12'0 0.0
2018-Feb-19 01:30N 34°09' W 119°12'0 0.0
2018-Feb-19 01:00N 34°09' W 119°12'0 0.0
2018-Feb-19 00:30N 34°09' W 119°12'2 3.8
2018-Feb-19 00:00N 34°08' W 119°14'917.0
2018-Feb-18 23:31N 34°11' W 119°24'5 9.0
2018-Feb-18 23:00N 34°08' W 119°19'612.1
2018-Feb-18 22:30N 34°09' W 119°12'0 0.4
2018-Feb-18 22:00N 34°09' W 119°12'0 0.0
2018-Feb-18 21:30N 34°09' W 119°12'0 0.0
2018-Feb-18 21:00N 34°09' W 119°12'0 0.0
2018-Feb-18 20:30N 34°09' W 119°12'0 0.0
2018-Feb-18 20:00N 34°09' W 119°12'0 0.0
2018-Feb-18 19:27N 34°09' W 119°12'0 0.0
2018-Feb-18 19:00N 34°09' W 119°12'0 0.0
2018-Feb-18 18:30N 34°09' W 119°12'0 0.0
2018-Feb-18 17:57N 34°09' W 119°12'0 0.0
2018-Feb-18 17:30N 34°09' W 119°12'0 0.0
2018-Feb-18 17:00N 34°09' W 119°12'3 6.7
2018-Feb-18 16:30N 34°09' W 119°16'5 9.8
2018-Feb-18 16:00N 34°11' W 119°21'2 3.7
2018-Feb-18 15:29N 34°10' W 119°20'713.5
2018-Feb-18 15:00N 34°09' W 119°12'0 0.0
2018-Feb-18 14:30N 34°09' W 119°12'0 0.0
2018-Feb-18 14:00N 34°09' W 119°12'0 0.0
2018-Feb-18 13:30N 34°09' W 119°12'0 0.0
2018-Feb-18 13:00N 34°09' W 119°12'0 0.0
2018-Feb-18 12:30N 34°09' W 119°12'0 0.0
2018-Feb-18 12:00N 34°09' W 119°12'0 0.0
2018-Feb-18 11:30N 34°09' W 119°12'0 0.0
2018-Feb-18 10:59N 34°09' W 119°12'0 0.0
2018-Feb-18 10:27N 34°09' W 119°12'0 0.0
2018-Feb-18 09:59N 34°09' W 119°12'0 0.0
2018-Feb-18 09:27N 34°09' W 119°12'0 0.0
2018-Feb-18 09:00N 34°09' W 119°12'0 0.0
2018-Feb-18 08:30N 34°09' W 119°12'0 0.0
2018-Feb-18 07:59N 34°09' W 119°12'0 0.0
2018-Feb-18 07:30N 34°09' W 119°12'0 0.0
2018-Feb-18 07:00N 34°09' W 119°12'0 0.0
2018-Feb-18 06:30N 34°09' W 119°12'0 0.0
2018-Feb-18 05:57N 34°09' W 119°12'0 0.0
2018-Feb-18 05:30N 34°09' W 119°12'0 0.0
2018-Feb-18 05:00N 34°09' W 119°12'0 0.0
2018-Feb-18 04:30N 34°09' W 119°12'0 0.0
2018-Feb-18 04:00N 34°09' W 119°12'0 0.6
2018-Feb-18 03:30N 34°09' W 119°12'816.1
2018-Feb-18 03:00N 34°10' W 119°22'1 1.4
2018-Feb-18 02:30N 34°10' W 119°21'713.9
2018-Feb-18 01:58N 34°09' W 119°12'0 0.6
2018-Feb-18 01:30N 34°09' W 119°12'0 0.0
2018-Feb-18 00:58N 34°09' W 119°12'0 0.0
2018-Feb-18 00:26N 34°09' W 119°12'2 4.7
2018-Feb-18 00:01N 34°09' W 119°15'916.9
2018-Feb-17 23:30N 34°11' W 119°24'712.2
2018-Feb-17 22:58N 34°09' W 119°17'4 8.3
2018-Feb-17 22:30N 34°09' W 119°12'0 0.0
2018-Feb-17 22:00N 34°09' W 119°12'0 0.0
2018-Feb-17 21:28N 34°09' W 119°12'0 0.0
2018-Feb-17 20:56N 34°09' W 119°12'0 0.0
2018-Feb-17 20:29N 34°09' W 119°12'0 0.0
2018-Feb-17 19:57N 34°09' W 119°12'0 0.0
2018-Feb-17 19:28N 34°09' W 119°12'0 0.0
2018-Feb-17 18:58N 34°09' W 119°12'0 0.0
2018-Feb-17 18:25N 34°09' W 119°12'0 0.0
2018-Feb-17 18:00N 34°09' W 119°12'0 0.0
2018-Feb-17 17:29N 34°09' W 119°12'0 0.0
2018-Feb-17 17:01N 34°09' W 119°12'4 8.2
2018-Feb-17 16:30N 34°09' W 119°17'713.8
2018-Feb-17 16:00N 34°11' W 119°25'0 0.7
2018-Feb-17 15:30N 34°11' W 119°25'816.6
2018-Feb-17 15:00N 34°09' W 119°15'2 4.6
2018-Feb-17 14:27N 34°09' W 119°12'0 0.0
2018-Feb-17 14:00N 34°09' W 119°12'0 0.0
2018-Feb-17 13:30N 34°09' W 119°12'0 0.0
2018-Feb-17 12:55N 34°09' W 119°12'0 0.0
2018-Feb-17 12:25N 34°09' W 119°12'0 0.0
2018-Feb-17 12:00N 34°09' W 119°12'0 0.0
2018-Feb-17 11:27N 34°09' W 119°12'0 0.0
2018-Feb-17 10:54N 34°09' W 119°12'0 0.0
2018-Feb-17 10:30N 34°09' W 119°12'0 0.0
2018-Feb-17 10:00N 34°09' W 119°12'0 0.0
2018-Feb-17 09:30N 34°09' W 119°12'0 0.0
2018-Feb-17 09:00N 34°09' W 119°12'0 0.0
2018-Feb-17 08:30N 34°09' W 119°12'0 0.0
2018-Feb-17 07:57N 34°09' W 119°12'0 0.0
2018-Feb-17 07:28N 34°09' W 119°12'0 0.0
2018-Feb-17 06:59N 34°09' W 119°12'0 0.0
2018-Feb-17 06:28N 34°09' W 119°12'0 0.0
2018-Feb-17 05:56N 34°09' W 119°12'0 0.0
2018-Feb-17 05:22N 34°09' W 119°12'0 0.0
2018-Feb-17 04:59N 34°09' W 119°12'0 0.0
2018-Feb-17 04:30N 34°09' W 119°12'3 6.2
2018-Feb-17 03:59N 34°09' W 119°16'715.7
2018-Feb-17 03:31N 34°11' W 119°25'0 0.7
2018-Feb-17 03:00N 34°11' W 119°25'5 9.7
2018-Feb-17 02:30N 34°10' W 119°19'611.7
2018-Feb-17 01:59N 34°09' W 119°12'0 0.0
2018-Feb-17 01:30N 34°09' W 119°12'1 2.6
2018-Feb-17 00:58N 34°09' W 119°14'714.3
2018-Feb-17 00:29N 34°10' W 119°22'1 2.5
2018-Feb-16 23:55N 34°09' W 119°21'511.7
2018-Feb-16 23:30N 34°07' W 119°16'3 6.4
2018-Feb-16 23:00N 34°09' W 119°12'0 0.0
2018-Feb-16 22:30N 34°09' W 119°12'0 0.0
2018-Feb-16 21:59N 34°09' W 119°12'0 0.0
2018-Feb-16 21:28N 34°09' W 119°12'4 6.9
2018-Feb-16 20:58N 34°09' W 119°16'714.8
2018-Feb-16 20:29N 34°11' W 119°25'1 1.4
2018-Feb-16 20:00N 34°11' W 119°25'0 0.2
2018-Feb-16 19:29N 34°11' W 119°25'0 0.6
2018-Feb-16 18:59N 34°11' W 119°26'0 0.4
2018-Feb-16 18:30N 34°11' W 119°26'0 0.6
2018-Feb-16 17:57N 34°11' W 119°25'0 0.2
2018-Feb-16 17:30N 34°11' W 119°25'0 0.2
2018-Feb-16 17:00N 34°11' W 119°25'0 0.0
2018-Feb-16 16:30N 34°11' W 119°25'0 0.1
2018-Feb-16 16:00N 34°11' W 119°25'610.0
2018-Feb-16 15:27N 34°09' W 119°19'512.6
2018-Feb-16 15:00N 34°09' W 119°12'0 0.0
2018-Feb-16 14:30N 34°09' W 119°12'1 1.6
2018-Feb-16 13:59N 34°08' W 119°13'2 4.0
2018-Feb-16 13:30N 34°08' W 119°15'2 4.8
2018-Feb-16 13:00N 34°09' W 119°13'0 0.8
2018-Feb-16 12:30N 34°09' W 119°12'0 0.0
2018-Feb-16 12:00N 34°09' W 119°12'0 0.0
2018-Feb-16 11:30N 34°09' W 119°12'0 0.0
2018-Feb-16 10:52N 34°09' W 119°12'0 0.0
2018-Feb-16 10:28N 34°09' W 119°12'0 0.0
2018-Feb-16 10:00N 34°09' W 119°12'0 0.0
2018-Feb-16 09:30N 34°09' W 119°12'0 0.0
2018-Feb-16 09:00N 34°09' W 119°12'0 0.0
2018-Feb-16 08:30N 34°09' W 119°12'0 0.0
2018-Feb-16 08:00N 34°09' W 119°12'0 0.0
2018-Feb-16 07:30N 34°09' W 119°12'0 0.0
2018-Feb-16 07:00N 34°09' W 119°12'0 0.0
2018-Feb-16 06:28N 34°09' W 119°12'0 0.0
2018-Feb-16 06:00N 34°09' W 119°12'0 0.0
2018-Feb-16 05:30N 34°09' W 119°12'0 0.0
2018-Feb-16 04:57N 34°09' W 119°12'3 6.9
2018-Feb-16 04:28N 34°09' W 119°16'715.8
2018-Feb-16 04:01N 34°11' W 119°25'712.5
2018-Feb-16 03:27N 34°09' W 119°17'4 8.1
2018-Feb-16 03:00N 34°09' W 119°12'0 0.0
2018-Feb-16 02:29N 34°09' W 119°12'0 0.0
2018-Feb-16 01:56N 34°09' W 119°12'0 0.0
2018-Feb-16 01:29N 34°09' W 119°12'0 0.0
2018-Feb-16 00:59N 34°09' W 119°12'3 5.5
2018-Feb-16 00:30N 34°08' W 119°15'1 2.1
2018-Feb-16 00:00N 34°07' W 119°16'815.6
2018-Feb-15 23:29N 34°11' W 119°25'0 0.9
2018-Feb-15 22:59N 34°11' W 119°25'511.3
2018-Feb-15 22:30N 34°08' W 119°19'3 5.2
2018-Feb-15 22:00N 34°07' W 119°17'2 4.6
2018-Feb-15 21:28N 34°08' W 119°14'613.2
2018-Feb-15 20:59N 34°09' W 119°22'3 6.3
2018-Feb-15 20:28N 34°11' W 119°25'3 7.4
2018-Feb-15 20:00N 34°14' W 119°27'715.0
2018-Feb-15 19:30N 34°20' W 119°32'3 5.1
2018-Feb-15 18:55N 34°23' W 119°30'410.5
2018-Feb-15 18:29N 34°19' W 119°31'816.5
2018-Feb-15 17:59N 34°11' W 119°26'712.4
2018-Feb-15 17:27N 34°09' W 119°18'511.0
2018-Feb-15 17:00N 34°09' W 119°12'0 0.8
2018-Feb-15 16:30N 34°09' W 119°13'815.2
2018-Feb-15 16:00N 34°10' W 119°22'3 5.8
2018-Feb-15 15:30N 34°11' W 119°25'915.7
2018-Feb-15 14:56N 34°09' W 119°15'2 4.9
2018-Feb-15 14:30N 34°09' W 119°12'0 0.0
2018-Feb-15 13:59N 34°09' W 119°12'0 0.0
2018-Feb-15 13:30N 34°09' W 119°12'2 2.8
2018-Feb-15 12:58N 34°08' W 119°14'2 3.3
2018-Feb-15 12:30N 34°09' W 119°12'0 0.0
2018-Feb-15 11:58N 34°09' W 119°12'0 0.0
2018-Feb-15 11:29N 34°09' W 119°12'0 0.0
2018-Feb-15 10:57N 34°09' W 119°12'0 0.0
2018-Feb-15 10:30N 34°09' W 119°12'0 0.0
2018-Feb-15 10:00N 34°09' W 119°12'0 0.0
2018-Feb-15 09:30N 34°09' W 119°12'0 0.0
2018-Feb-15 09:00N 34°09' W 119°12'0 0.0
2018-Feb-15 08:30N 34°09' W 119°12'0 0.0
2018-Feb-15 07:59N 34°09' W 119°12'0 0.0
2018-Feb-15 07:30N 34°09' W 119°12'0 0.0
2018-Feb-15 07:00N 34°09' W 119°12'0 0.0
2018-Feb-15 06:30N 34°09' W 119°12'0 0.0
2018-Feb-15 06:00N 34°09' W 119°12'0 0.0
2018-Feb-15 05:30N 34°09' W 119°12'0 0.0
2018-Feb-15 05:00N 34°09' W 119°12'0 0.0
2018-Feb-15 04:30N 34°09' W 119°12'0 0.0
2018-Feb-15 04:00N 34°09' W 119°12'611.3
2018-Feb-15 03:30N 34°09' W 119°19'510.6
2018-Feb-15 03:00N 34°11' W 119°25'4 7.5
2018-Feb-15 02:25N 34°10' W 119°20'614.9
2018-Feb-15 02:00N 34°09' W 119°13'0 0.8
2018-Feb-15 01:30N 34°09' W 119°12'0 0.0
2018-Feb-15 01:00N 34°09' W 119°12'4 8.1
2018-Feb-15 00:30N 34°07' W 119°16'816.1
2018-Feb-15 00:00N 34°11' W 119°25'0 0.3
2018-Feb-14 23:30N 34°11' W 119°25'0 0.0
2018-Feb-14 22:59N 34°11' W 119°25'0 0.0
2018-Feb-14 22:30N 34°11' W 119°25'0 0.0
2018-Feb-14 21:59N 34°11' W 119°25'0 0.0
2018-Feb-14 21:28N 34°11' W 119°25'0 0.0
2018-Feb-14 21:01N 34°11' W 119°25'0 0.3
2018-Feb-14 20:30N 34°11' W 119°25'714.1
2018-Feb-14 20:00N 34°09' W 119°17'4 7.8
2018-Feb-14 19:29N 34°09' W 119°12'0 0.0
2018-Feb-14 19:00N 34°09' W 119°12'2 3.8
2018-Feb-14 18:30N 34°08' W 119°14'816.0
2018-Feb-14 18:00N 34°10' W 119°24'1 2.7
2018-Feb-14 17:28N 34°11' W 119°25'0 0.0
2018-Feb-14 17:00N 34°11' W 119°25'0 0.0
2018-Feb-14 16:29N 34°11' W 119°25'0 0.0
2018-Feb-14 16:00N 34°11' W 119°25'3 6.6
2018-Feb-14 15:29N 34°09' W 119°22'713.8
2018-Feb-14 14:59N 34°08' W 119°13'1 2.1
2018-Feb-14 14:28N 34°09' W 119°12'0 0.0
2018-Feb-14 13:59N 34°09' W 119°12'0 0.0
2018-Feb-14 13:30N 34°09' W 119°12'0 0.0
2018-Feb-14 13:00N 34°09' W 119°12'0 0.0
2018-Feb-14 12:30N 34°09' W 119°12'0 0.0
2018-Feb-14 12:00N 34°09' W 119°12'0 0.0
2018-Feb-14 11:28N 34°09' W 119°12'0 0.0
2018-Feb-14 11:00N 34°09' W 119°12'0 0.0
2018-Feb-14 10:30N 34°09' W 119°12'0 0.0
2018-Feb-14 10:00N 34°09' W 119°12'0 0.0
2018-Feb-14 09:30N 34°09' W 119°12'0 0.0
2018-Feb-14 08:59N 34°09' W 119°12'0 0.0
2018-Feb-14 08:30N 34°09' W 119°12'0 0.0
2018-Feb-14 08:00N 34°09' W 119°12'0 0.0
2018-Feb-14 07:30N 34°09' W 119°12'0 0.0
2018-Feb-14 07:00N 34°09' W 119°12'0 0.0
2018-Feb-14 06:30N 34°09' W 119°12'0 0.0
2018-Feb-14 06:00N 34°09' W 119°12'0 0.0
2018-Feb-14 05:30N 34°09' W 119°12'0 0.0
2018-Feb-14 05:00N 34°09' W 119°12'0 0.0
2018-Feb-14 04:30N 34°09' W 119°12'0 0.0
2018-Feb-14 04:00N 34°09' W 119°12'1 2.2
2018-Feb-14 03:29N 34°08' W 119°13'816.2
2018-Feb-14 03:00N 34°10' W 119°23'3 6.1
2018-Feb-14 02:30N 34°10' W 119°19'611.3
2018-Feb-14 02:00N 34°09' W 119°12'0 0.0
2018-Feb-14 01:30N 34°09' W 119°12'0 0.0
2018-Feb-14 01:00N 34°09' W 119°12'0 0.0
2018-Feb-14 00:30N 34°09' W 119°12'612.2
2018-Feb-14 00:00N 34°10' W 119°20'5 9.5
2018-Feb-13 23:29N 34°11' W 119°25'0 0.0
2018-Feb-13 23:00N 34°11' W 119°25'0 0.3
2018-Feb-13 22:30N 34°11' W 119°25'0 0.0
2018-Feb-13 22:00N 34°11' W 119°25'611.1
2018-Feb-13 21:28N 34°16' W 119°29'612.2
2018-Feb-13 21:01N 34°21' W 119°31'13 3.8
2018-Feb-13 17:32N 34°10' W 119°22'214.8
2018-Feb-13 17:26N 34°11' W 119°24'1 2.0
2018-Feb-13 17:00N 34°11' W 119°25'0 0.0
2018-Feb-13 16:28N 34°11' W 119°25'0 0.2
2018-Feb-13 15:59N 34°11' W 119°25'610.7
2018-Feb-13 15:26N 34°10' W 119°18'512.3
2018-Feb-13 15:01N 34°09' W 119°12'0 0.0
2018-Feb-13 14:30N 34°09' W 119°12'0 0.0
2018-Feb-13 13:58N 34°09' W 119°12'0 0.3
2018-Feb-13 13:30N 34°09' W 119°12'1 2.7
2018-Feb-13 13:00N 34°08' W 119°14'1 2.9
2018-Feb-13 12:30N 34°09' W 119°12'0 0.0
2018-Feb-13 12:00N 34°09' W 119°12'0 0.0
2018-Feb-13 11:30N 34°09' W 119°12'0 0.0
2018-Feb-13 10:59N 34°09' W 119°12'0 0.0
2018-Feb-13 10:30N 34°09' W 119°12'0 0.0
2018-Feb-13 10:00N 34°09' W 119°12'0 0.0
2018-Feb-13 09:30N 34°09' W 119°12'0 0.0
2018-Feb-13 09:00N 34°09' W 119°12'0 0.0
2018-Feb-13 08:30N 34°09' W 119°12'0 0.0
2018-Feb-13 08:00N 34°09' W 119°12'0 0.0
2018-Feb-13 07:30N 34°09' W 119°12'0 0.0
2018-Feb-13 07:00N 34°09' W 119°12'0 0.0
2018-Feb-13 06:30N 34°09' W 119°12'0 0.0
2018-Feb-13 06:00N 34°09' W 119°12'0 0.0
2018-Feb-13 05:30N 34°09' W 119°12'0 0.0
2018-Feb-13 05:00N 34°09' W 119°12'0 0.0
2018-Feb-13 04:29N 34°09' W 119°12'0 0.0
2018-Feb-13 04:00N 34°09' W 119°12'0 0.0
2018-Feb-13 03:30N 34°09' W 119°12'0 0.0
2018-Feb-13 02:59N 34°09' W 119°12'0 0.0
2018-Feb-13 02:30N 34°09' W 119°12'0 0.0
2018-Feb-13 02:00N 34°09' W 119°12'0 0.0
2018-Feb-13 01:28N 34°09' W 119°12'0 0.0
2018-Feb-13 01:00N 34°09' W 119°12'0 0.1
2018-Feb-13 00:30N 34°09' W 119°12'510.6
2018-Feb-13 00:00N 34°08' W 119°18'612.5
2018-Feb-12 23:30N 34°11' W 119°25'0 0.3
2018-Feb-12 22:59N 34°11' W 119°25'0 0.0
2018-Feb-12 22:29N 34°11' W 119°25'0 0.0
2018-Feb-12 22:00N 34°11' W 119°25'0 0.0
2018-Feb-12 21:31N 34°11' W 119°25'2 3.6
2018-Feb-12 20:53N 34°10' W 119°23'614.4
2018-Feb-12 20:30N 34°09' W 119°16'3 6.3
2018-Feb-12 20:00N 34°09' W 119°12'0 0.0
2018-Feb-12 19:30N 34°09' W 119°12'0 0.0
2018-Feb-12 19:00N 34°09' W 119°12'0 0.0
2018-Feb-12 18:30N 34°09' W 119°12'0 0.0
2018-Feb-12 18:00N 34°09' W 119°12'0 0.0
2018-Feb-12 17:30N 34°09' W 119°12'0 0.4
2018-Feb-12 16:59N 34°09' W 119°12'2 4.2
2018-Feb-12 16:30N 34°08' W 119°14'714.2
2018-Feb-12 16:00N 34°10' W 119°23'0 0.6
2018-Feb-12 15:30N 34°10' W 119°23'813.9
2018-Feb-12 14:56N 34°08' W 119°14'2 3.6
2018-Feb-12 14:30N 34°09' W 119°12'0 0.0
2018-Feb-12 14:00N 34°09' W 119°12'0 0.0
2018-Feb-12 13:30N 34°09' W 119°12'0 0.0
2018-Feb-12 13:00N 34°09' W 119°12'0 0.0
2018-Feb-12 12:29N 34°09' W 119°12'0 0.0
2018-Feb-12 12:00N 34°09' W 119°12'0 0.0
2018-Feb-12 11:30N 34°09' W 119°12'0 0.0
2018-Feb-12 11:00N 34°09' W 119°12'0 0.0
2018-Feb-12 10:30N 34°09' W 119°12'0 0.0
2018-Feb-12 10:00N 34°09' W 119°12'0 0.0
2018-Feb-12 09:30N 34°09' W 119°12'0 0.0
2018-Feb-12 09:00N 34°09' W 119°12'0 0.0
2018-Feb-12 08:30N 34°09' W 119°12'0 0.0
2018-Feb-12 08:00N 34°09' W 119°12'0 0.0
2018-Feb-12 07:29N 34°09' W 119°12'0 0.0
2018-Feb-12 07:00N 34°09' W 119°12'  

Dump ship's entire track history